Time;durP1;ratioP1;P1;durP2;ratioP2;P2;SDS_P1;SDS_P2;PMS_P1;PMS_P2;Temp;Humidity;BMP_temperature;BMP_pressure;BME280_temperature;BME280_humidity;BME280_pressure;Samples;Min_cycle;Max_cycle;Signal;HPM_P1;HPM_P2
2023/04/18 00:00:11;;;;;;;;;25.00;22.33;;;;;20.99;37.83;101804.69;5035085;28;61316;-38
2023/04/18 00:02:38;;;;;;;;;31.25;26.00;;;;;20.98;37.66;101805.59;5034591;28;45492;-39
2023/04/18 00:05:07;;;;;;;;;27.50;23.50;;;;;20.98;37.68;101801.22;5035573;28;46245;-38
2023/04/18 00:07:35;;;;;;;;;20.50;18.25;;;;;20.96;38.06;101792.50;5035954;28;45331;-38
2023/04/18 00:10:02;;;;;;;;;24.25;22.50;;;;;20.97;37.82;101790.72;5035969;28;45395;-38
2023/04/18 00:12:27;;;;;;;;;28.50;22.75;;;;;20.95;38.05;101785.50;5035899;28;45596;-38
2023/04/18 00:14:53;;;;;;;;;23.25;22.25;;;;;20.95;38.05;101784.63;5033978;28;47805;-38
2023/04/18 00:17:19;;;;;;;;;21.25;18.75;;;;;20.94;37.91;101783.78;5033695;28;60800;-38
2023/04/18 00:19:45;;;;;;;;;22.25;20.25;;;;;20.94;37.55;101786.44;5036002;28;45363;-38
2023/04/18 00:22:12;;;;;;;;;26.75;22.00;;;;;20.93;37.85;101795.25;5038941;28;45249;-38
2023/04/18 00:24:38;;;;;;;;;23.75;23.00;;;;;20.92;37.79;101790.91;5038669;28;45882;-38
2023/04/18 00:27:03;;;;;;;;;24.50;22.00;;;;;20.92;38.12;101782.16;5039122;28;45308;-38
2023/04/18 00:29:30;;;;;;;;;24.25;21.50;;;;;20.91;37.91;101783.91;5038946;28;45283;-38
2023/04/18 00:31:56;;;;;;;;;23.00;21.75;;;;;20.91;37.93;101794.47;5038786;28;45276;-38
2023/04/18 00:34:21;;;;;;;;;28.50;20.75;;;;;20.91;37.97;101783.06;5038688;28;46286;-38
2023/04/18 00:36:46;;;;;;;;;26.33;22.00;;;;;20.91;37.86;101793.63;5038267;28;61309;-38
2023/04/18 00:39:11;;;;;;;;;26.00;20.00;;;;;20.91;38.33;101781.28;5037840;28;64200;-37
2023/04/18 00:41:37;;;;;;;;;26.25;25.25;;;;;20.89;38.04;101788.38;5038913;28;45374;-37
2023/04/18 00:44:02;;;;;;;;;24.50;21.50;;;;;20.88;38.31;101784.06;5038793;28;46171;-38
2023/04/18 00:46:28;;;;;;;;;23.50;19.50;;;;;20.88;37.93;101783.19;5037595;28;45336;-39
2023/04/18 00:48:53;;;;;;;;;23.50;21.25;;;;;20.85;37.86;101779.75;5037455;28;45372;-37
2023/04/18 00:51:20;;;;;;;;;24.25;19.75;;;;;20.86;38.12;101783.28;5038993;28;45406;-38
2023/04/18 00:53:45;;;;;;;;;19.25;19.25;;;;;20.87;37.95;101776.22;5038265;28;46203;-38
2023/04/18 00:56:11;;;;;;;;;22.75;21.75;;;;;20.85;37.75;101779.75;5037169;28;45538;-38
2023/04/18 00:58:39;;;;;;;;;22.50;18.75;;;;;20.85;38.14;101773.66;5038819;28;45503;-37
2023/04/18 01:01:04;;;;;;;;;23.75;19.00;;;;;20.83;38.15;101773.72;5038908;28;45310;-38
2023/04/18 01:03:30;;;;;;;;;21.00;20.75;;;;;20.82;38.37;101768.50;5038148;28;46440;-37
2023/04/18 01:05:56;;;;;;;;;26.75;21.00;;;;;20.82;38.20;101768.50;5038210;28;45339;-40
2023/04/18 01:08:22;;;;;;;;;23.75;20.25;;;;;20.80;37.71;101771.22;5038389;28;45438;-38
2023/04/18 01:10:48;;;;;;;;;20.50;19.25;;;;;20.80;38.11;101768.56;5038534;28;45394;-38
2023/04/18 01:13:18;;;;;;;;;21.75;19.50;;;;;20.79;37.97;101764.22;5036873;28;48158;-38
2023/04/18 01:15:46;;;;;;;;;24.50;20.25;;;;;20.80;37.74;101765.94;5038224;28;45712;-38
2023/04/18 01:18:12;;;;;;;;;25.00;21.25;;;;;20.80;37.93;101765.06;5038337;28;45478;-38
2023/04/18 01:20:41;;;;;;;;;18.75;16.75;;;;;20.80;38.17;101758.03;5038691;28;45296;-37
2023/04/18 01:23:09;;;;;;;;;22.25;19.75;;;;;20.79;37.97;101752.81;5037990;28;46481;-38
2023/04/18 01:25:34;;;;;;;;;20.25;18.50;;;;;20.80;38.01;101752.75;5038397;28;45371;-38
2023/04/18 01:28:01;;;;;;;;;23.50;19.75;;;;;20.78;37.96;101756.41;5038208;28;45379;-38
2023/04/18 01:30:27;;;;;;;;;20.75;19.50;;;;;20.78;37.79;101751.13;5038284;28;45301;-37
2023/04/18 01:32:52;;;;;;;;;19.25;18.25;;;;;20.77;37.79;101749.41;5037213;28;45325;-38
2023/04/18 01:35:17;;;;;;;;;20.00;19.50;;;;;20.77;37.71;101752.03;5037620;28;45339;-38
2023/04/18 01:37:43;;;;;;;;;22.75;19.50;;;;;20.75;38.19;101736.28;5037724;28;45257;-38
2023/04/18 01:40:09;;;;;;;;;22.50;22.50;;;;;20.76;37.81;101745.06;5038330;28;45319;-42
2023/04/18 01:42:35;;;;;;;;;23.25;21.50;;;;;20.74;38.07;101744.22;5037885;28;46354;-40
2023/04/18 01:45:00;;;;;;;;;24.50;22.25;;;;;20.75;37.92;101743.34;5037577;28;45257;-38
2023/04/18 01:47:25;;;;;;;;;17.50;16.75;;;;;20.75;37.94;101740.72;5037727;28;45400;-39
2023/04/18 01:49:51;;;;;;;;;22.67;19.33;;;;;20.72;38.21;101741.66;5037500;28;45498;-41
2023/04/18 01:52:16;;;;;;;;;20.25;18.75;;;;;20.73;38.05;101745.16;5037516;28;46229;-40
2023/04/18 01:54:41;;;;;;;;;21.67;20.00;;;;;20.73;38.26;101747.78;5036961;28;64019;-38
2023/04/18 01:57:07;;;;;;;;;26.50;22.00;;;;;20.72;38.03;101743.44;5037860;28;45153;-42
2023/04/18 01:59:32;;;;;;;;;22.00;19.00;;;;;20.70;38.20;101741.72;5037798;28;45664;-41
2023/04/18 02:01:57;;;;;;;;;22.50;19.75;;;;;20.70;38.45;101744.34;5037427;28;46160;-38
2023/04/18 02:04:23;;;;;;;;;22.00;18.75;;;;;20.70;38.08;101740.88;5037268;28;45257;-38
2023/04/18 02:06:48;;;;;;;;;21.75;19.25;;;;;20.67;37.92;101744.47;5037637;28;45273;-40
2023/04/18 02:09:14;;;;;;;;;20.00;19.25;;;;;20.69;38.27;101740.00;5037678;28;45493;-37
2023/04/18 02:11:39;;;;;;;;;20.75;18.50;;;;;20.67;38.20;101739.19;5037641;28;46438;-37
2023/04/18 02:14:05;;;;;;;;;19.00;18.25;;;;;20.66;38.43;101729.59;5037290;28;45414;-38
2023/04/18 02:16:30;;;;;;;;;21.00;19.25;;;;;20.66;38.05;101732.25;5037154;28;45438;-37
2023/04/18 02:18:55;;;;;;;;;21.50;19.75;;;;;20.67;38.23;101733.09;5036147;28;45645;-38
2023/04/18 02:21:21;;;;;;;;;19.00;18.75;;;;;20.66;38.41;101731.38;5036771;28;45477;-37
2023/04/18 02:23:46;;;;;;;;;21.50;17.75;;;;;20.67;37.96;101733.09;5037206;28;45339;-37
2023/04/18 02:26:12;;;;;;;;;26.25;19.75;;;;;20.66;38.37;101723.47;5037298;28;45410;-38
2023/04/18 02:28:37;;;;;;;;;19.33;18.00;;;;;20.65;38.41;101727.88;5036992;28;55193;-38
2023/04/18 02:31:03;;;;;;;;;21.50;19.25;;;;;20.65;38.12;101722.63;5036980;28;46512;-37
2023/04/18 02:33:29;;;;;;;;;23.00;19.75;;;;;20.64;38.03;101728.81;5036796;28;45470;-38
2023/04/18 02:35:54;;;;;;;;;18.75;18.75;;;;;20.64;38.08;101728.81;5036930;28;45442;-39
2023/04/18 02:38:20;;;;;;;;;17.00;17.00;;;;;20.63;38.45;101724.47;5037174;28;45234;-38
2023/04/18 02:40:45;;;;;;;;;20.50;17.50;;;;;20.62;38.10;101724.50;5036845;28;46300;-39
2023/04/18 02:43:10;;;;;;;;;20.50;19.50;;;;;20.60;38.60;101711.41;5036451;28;45212;-39
2023/04/18 02:45:36;;;;;;;;;21.33;17.33;;;;;20.62;38.42;101717.47;5035706;28;62573;-38
2023/04/18 02:48:01;;;;;;;;;19.50;19.50;;;;;20.62;38.20;101713.97;5036861;28;45624;-38
2023/04/18 02:50:27;;;;;;;;;22.50;18.00;;;;;20.61;38.44;101721.03;5036448;28;45205;-39
2023/04/18 02:52:53;;;;;;;;;16.50;16.00;;;;;20.61;38.44;101713.13;5036637;28;45714;-38
2023/04/18 02:55:19;;;;;;;;;13.75;11.25;;;;;20.60;38.22;101706.13;5036866;28;45419;-38
2023/04/18 02:57:45;;;;;;;;;20.00;18.50;;;;;20.61;38.52;101712.28;5036819;28;45451;-39
2023/04/18 03:00:12;;;;;;;;;22.00;19.33;;;;;20.60;38.48;101705.28;5036149;28;62170;-39
2023/04/18 03:02:37;;;;;;;;;26.25;20.50;;;;;20.59;38.14;101704.44;5036524;28;45417;-39
2023/04/18 03:05:03;;;;;;;;;18.50;17.25;;;;;20.58;38.50;101707.97;5036480;28;45755;-39
2023/04/18 03:07:29;;;;;;;;;20.75;18.75;;;;;20.58;38.46;101705.34;5036711;28;45453;-39
2023/04/18 03:09:55;;;;;;;;;21.25;17.25;;;;;20.57;38.64;101697.53;5036416;28;45601;-39
2023/04/18 03:12:20;;;;;;;;;19.75;15.25;;;;;20.58;38.46;101705.34;5036432;28;45257;-40
2023/04/18 03:14:45;;;;;;;;;20.75;16.75;;;;;20.57;38.35;101711.53;5036553;28;45323;-37
2023/04/18 03:17:11;;;;;;;;;21.50;19.00;;;;;20.57;38.14;101705.41;5036830;28;45530;-37
2023/04/18 03:19:36;;;;;;;;;17.00;16.50;;;;;20.57;38.85;101708.91;5034584;28;47575;-38
2023/04/18 03:22:01;;;;;;;;;22.25;19.50;;;;;20.54;38.25;101707.25;5035984;28;45252;-37
2023/04/18 03:24:27;;;;;;;;;19.25;17.00;;;;;20.55;38.15;101702.84;5036311;28;45351;-38
2023/04/18 03:26:52;;;;;;;;;18.67;17.33;;;;;20.54;38.63;101702.00;5035897;28;53989;-37
2023/04/18 03:29:17;;;;;;;;;22.50;20.25;;;;;20.54;38.63;101707.25;5036128;28;45332;-37
2023/04/18 03:31:43;;;;;;;;;19.75;16.25;;;;;20.54;38.44;101706.41;5036564;28;45241;-37
2023/04/18 03:34:08;;;;;;;;;22.25;17.75;;;;;20.54;38.57;101706.41;5036064;28;45559;-38
2023/04/18 03:36:34;;;;;;;;;24.75;20.25;;;;;20.53;38.56;101704.69;5036298;28;45497;-38
2023/04/18 03:38:59;;;;;;;;;20.00;18.25;;;;;20.53;38.54;101705.53;5036064;28;46321;-37
2023/04/18 03:41:25;;;;;;;;;26.25;21.25;;;;;20.54;38.61;101702.00;5036087;28;45391;-39
2023/04/18 03:43:50;;;;;;;;;22.75;20.00;;;;;20.58;38.92;101700.06;5036077;28;45346;-38
2023/04/18 03:46:15;;;;;;;;;21.00;20.33;;;;;20.64;38.47;101706.88;5035854;28;52201;-38
2023/04/18 03:48:40;;;;;;;;;23.25;18.25;;;;;20.68;38.76;101701.41;5035636;28;46466;-38
2023/04/18 03:51:06;;;;;;;;;19.00;15.33;;;;;20.77;38.79;101708.09;5034945;28;64168;-39
2023/04/18 03:53:31;;;;;;;;;21.50;17.75;;;;;20.81;38.37;101706.19;5035935;28;45384;-38
2023/04/18 03:55:56;;;;;;;;;19.50;17.00;;;;;20.91;38.29;101707.50;5038196;28;45280;-38
2023/04/18 03:58:22;;;;;;;;;20.25;17.50;;;;;21.00;38.25;101706.25;5039354;28;46131;-39
2023/04/18 04:00:49;;;;;;;;;15.75;15.75;;;;;21.04;38.36;101693.78;5039702;28;45863;-38
2023/04/18 04:03:14;;;;;;;;;20.00;15.25;;;;;21.13;38.09;101699.53;5039735;28;45476;-39
2023/04/18 04:05:39;;;;;;;;;22.75;19.75;;;;;21.20;37.98;101694.84;5039666;28;45456;-37
2023/04/18 04:08:05;;;;;;;;;17.75;16.75;;;;;21.27;38.58;101696.28;5038996;28;46493;-38
2023/04/18 04:10:30;;;;;;;;;16.50;14.75;;;;;21.31;38.26;101697.84;5039191;28;45224;-42
2023/04/18 04:12:55;;;;;;;;;19.67;18.33;;;;;21.38;37.95;101692.28;5038951;28;45302;-38
2023/04/18 04:15:21;;;;;;;;;20.00;17.25;;;;;21.42;37.95;101688.59;5038106;28;45386;-39
2023/04/18 04:17:46;;;;;;;;;18.50;16.00;;;;;21.45;38.07;101693.72;5039128;28;45429;-40
2023/04/18 04:20:11;;;;;;;;;21.00;17.33;;;;;21.47;37.82;101686.59;5038255;28;65379;-38
2023/04/18 04:22:37;;;;;;;;;19.25;15.50;;;;;21.50;37.91;101691.72;5038001;28;45353;-39
2023/04/18 04:25:03;;;;;;;;;18.67;16.33;;;;;21.52;37.65;101687.25;5037222;28;59578;-39
2023/04/18 04:27:28;;;;;;;;;20.25;17.75;;;;;21.54;37.66;101692.44;5038766;28;46574;-38
2023/04/18 04:29:55;;;;;;;;;19.67;16.00;;;;;21.54;37.86;101690.69;5038379;28;64366;-39
2023/04/18 04:32:20;;;;;;;;;20.00;16.00;;;;;21.58;37.81;101686.94;5037632;28;45375;-37
2023/04/18 04:34:46;;;;;;;;;18.75;15.75;;;;;21.58;37.68;101686.94;5038105;28;45330;-37
2023/04/18 04:37:17;;;;;;;;;21.67;17.67;;;;;21.59;37.47;101691.34;5037989;28;64341;-38
2023/04/18 04:39:43;;;;;;;;;15.50;15.50;;;;;21.60;37.58;101689.56;5038800;28;45788;-37
2023/04/18 04:42:08;;;;;;;;;22.00;16.50;;;;;21.60;37.54;101681.66;5037481;28;45349;-38
2023/04/18 04:44:34;;;;;;;;;16.75;16.00;;;;;21.61;37.49;101694.75;5038883;28;45612;-38
2023/04/18 04:46:59;;;;;;;;;19.00;17.75;;;;;21.61;37.71;101686.84;5038358;28;47409;-38
2023/04/18 04:49:25;;;;;;;;;20.50;17.25;;;;;21.60;37.51;101682.50;5038383;28;45232;-37
2023/04/18 04:51:50;;;;;;;;;28.50;25.75;;;;;21.59;37.48;101683.41;5038885;28;45485;-38
2023/04/18 04:54:15;;;;;;;;;25.00;23.50;;;;;21.58;37.44;101689.59;5038955;28;45660;-38
2023/04/18 04:56:41;;;;;;;;;20.75;18.25;;;;;21.57;37.21;101690.50;5038307;28;46239;-38
2023/04/18 04:59:06;;;;;;;;;20.75;19.25;;;;;21.56;37.39;101686.16;5037204;28;45437;-38
2023/04/18 05:01:32;;;;;;;;;22.50;17.25;;;;;21.56;37.54;101696.72;5038342;28;45340;-37
2023/04/18 05:03:57;;;;;;;;;22.25;19.00;;;;;21.55;37.49;101694.16;5038563;28;45519;-38
2023/04/18 05:06:23;;;;;;;;;18.67;15.33;;;;;21.53;37.29;101691.59;5036753;28;60134;-37
2023/04/18 05:08:49;;;;;;;;;18.25;17.25;;;;;21.54;37.56;101693.31;5038109;28;45389;-37
2023/04/18 05:11:15;;;;;;;;;21.50;19.50;;;;;21.53;37.60;101694.22;5038256;28;45418;-37
2023/04/18 05:13:40;;;;;;;;;25.00;19.50;;;;;21.50;37.36;101689.09;5038421;28;45232;-37
2023/04/18 05:16:06;;;;;;;;;29.75;24.50;;;;;21.49;37.42;101686.53;5037763;28;46331;-38
2023/04/18 05:18:32;;;;;;;;;21.25;20.25;;;;;21.51;37.54;101689.94;5037980;28;45190;-38
2023/04/18 05:20:57;;;;;;;;;28.75;26.25;;;;;21.48;37.80;101685.66;5036735;28;45335;-36
2023/04/18 05:23:22;;;;;;;;;31.50;24.50;;;;;21.47;37.71;101682.19;5038654;28;45767;-37
2023/04/18 05:25:48;;;;;;;;;26.75;22.50;;;;;21.46;37.45;101692.78;5036887;28;46553;-37
2023/04/18 05:28:13;;;;;;;;;22.75;21.25;;;;;21.45;37.84;101688.44;5037835;28;45191;-37
2023/04/18 05:30:39;;;;;;;;;28.67;27.33;;;;;21.43;37.84;101685.03;5037372;28;56303;-37
2023/04/18 05:33:04;;;;;;;;;27.50;24.25;;;;;21.43;37.93;101687.69;5037980;28;45272;-37
2023/04/18 05:35:30;;;;;;;;;22.25;18.75;;;;;21.43;37.79;101700.84;5037798;28;46976;-37
2023/04/18 05:37:56;;;;;;;;;24.50;22.00;;;;;21.41;37.55;101694.78;5037656;28;45476;-37
2023/04/18 05:40:22;;;;;;;;;23.75;20.50;;;;;21.41;37.69;101697.44;5036892;28;45442;-37
2023/04/18 05:42:47;;;;;;;;;25.50;22.50;;;;;21.39;37.77;101701.91;5037832;28;45280;-39
2023/04/18 05:45:12;;;;;;;;;17.00;17.00;;;;;21.37;37.84;101699.34;5036971;28;56442;-37
2023/04/18 05:47:38;;;;;;;;;24.75;23.50;;;;;21.38;38.00;101700.19;5037439;28;45393;-37
2023/04/18 05:50:04;;;;;;;;;20.00;18.25;;;;;21.36;38.02;101700.28;5036222;28;45579;-38
2023/04/18 05:52:31;;;;;;;;;19.50;19.25;;;;;21.37;37.83;101702.00;5037918;28;45481;-37
2023/04/18 05:54:56;;;;;;;;;18.00;17.50;;;;;21.37;37.72;101701.13;5036066;28;48496;-38
2023/04/18 05:57:22;;;;;;;;;22.33;18.33;;;;;21.36;37.78;101702.03;5037290;28;55554;-37
2023/04/18 05:59:47;;;;;;;;;21.25;18.75;;;;;21.35;37.85;101702.97;5037453;28;45245;-37
2023/04/18 06:02:12;;;;;;;;;19.00;15.75;;;;;21.31;37.59;101696.97;5037660;28;45207;-39
2023/04/18 06:04:40;;;;;;;;;18.00;17.00;;;;;21.33;37.67;101700.41;5037218;28;46832;-40
2023/04/18 06:07:05;;;;;;;;;23.75;22.50;;;;;21.35;38.11;101702.97;5037306;28;45995;-38
2023/04/18 06:09:31;;;;;;;;;21.00;17.25;;;;;21.34;38.02;101706.53;5037454;28;45318;-37
2023/04/18 06:11:56;;;;;;;;;21.33;17.67;;;;;21.33;38.13;101699.56;5037138;28;45924;-38
2023/04/18 06:14:24;;;;;;;;;19.00;17.75;;;;;21.34;37.59;101702.13;5037325;28;46550;-37
2023/04/18 06:16:50;;;;;;;;;19.75;18.75;;;;;21.31;37.81;101708.41;5037136;28;45489;-40
2023/04/18 06:19:15;;;;;;;;;26.50;20.75;;;;;21.31;37.84;101702.25;5036971;28;45454;-42
2023/04/18 06:21:41;;;;;;;;;19.25;18.75;;;;;21.30;37.98;101705.81;5037491;28;45293;-39
2023/04/18 06:24:07;;;;;;;;;25.50;19.50;;;;;21.30;37.55;101716.34;5036979;28;45352;-41
2023/04/18 06:26:32;;;;;;;;;18.00;16.75;;;;;21.27;37.95;101696.28;5036913;28;45411;-40
2023/04/18 06:28:58;;;;;;;;;21.00;18.25;;;;;21.27;37.96;101701.53;5037077;28;45367;-41
2023/04/18 06:31:23;;;;;;;;;23.67;20.00;;;;;21.29;37.88;101706.72;5036913;28;50741;-40
2023/04/18 06:33:48;;;;;;;;;19.75;19.50;;;;;21.28;37.74;101702.38;5036792;28;45292;-42
2023/04/18 06:36:14;;;;;;;;;20.00;17.50;;;;;21.29;37.68;101704.97;5036761;28;45352;-45
2023/04/18 06:38:39;;;;;;;;;18.00;17.00;;;;;21.29;37.85;101712.00;5036906;28;45245;-43
2023/04/18 06:41:04;;;;;;;;;21.00;19.00;;;;;21.27;37.60;101705.97;5037167;28;45299;-41
2023/04/18 06:43:30;;;;;;;;;21.33;18.33;;;;;21.26;37.99;101705.09;5036416;28;56275;-39
2023/04/18 06:45:55;;;;;;;;;24.75;23.50;;;;;21.25;37.81;101706.03;5037055;28;45449;-38
2023/04/18 06:48:21;;;;;;;;;21.75;20.50;;;;;21.24;37.81;101704.31;5036784;28;45319;-44
2023/04/18 06:50:46;;;;;;;;;20.25;18.50;;;;;21.23;37.51;101699.94;5036981;28;45406;-40
2023/04/18 06:53:12;;;;;;;;;20.67;20.67;;;;;21.23;37.72;101707.03;5036397;28;51488;-41
2023/04/18 06:55:39;;;;;;;;;18.50;17.50;;;;;21.20;38.06;101697.47;5036608;28;45443;-43
2023/04/18 06:58:05;;;;;;;;;17.00;16.00;;;;;21.18;37.91;101707.22;5036627;28;45401;-40
2023/04/18 07:00:30;;;;;;;;;18.50;17.00;;;;;21.19;37.86;101705.44;5036895;28;45323;-41
2023/04/18 07:02:55;;;;;;;;;25.67;19.67;;;;;21.16;37.97;101704.66;5035970;28;66874;-43
2023/04/18 07:05:20;;;;;;;;;21.75;17.25;;;;;21.17;38.00;101700.25;5036512;28;45337;-38
2023/04/18 07:07:46;;;;;;;;;26.00;20.75;;;;;21.17;37.99;101700.25;5036534;28;45331;-38
2023/04/18 07:10:11;;;;;;;;;32.50;21.75;;;;;21.17;37.94;101702.88;5036691;28;45517;-39
2023/04/18 07:12:36;;;;;;;;;20.75;19.75;;;;;21.19;37.86;101701.03;5036182;28;46205;-39
2023/04/18 07:15:03;;;;;;;;;21.50;19.50;;;;;21.21;38.08;101704.47;5036206;28;45377;-39
2023/04/18 07:17:28;;;;;;;;;23.75;20.00;;;;;21.20;37.78;101705.38;5036650;28;45315;-38
2023/04/18 07:19:54;;;;;;;;;24.33;18.00;;;;;21.21;37.85;101704.47;5036253;28;45446;-37
2023/04/18 07:22:19;;;;;;;;;26.00;21.75;;;;;21.19;38.08;101708.94;5035975;28;46331;-38
2023/04/18 07:24:44;;;;;;;;;25.00;21.33;;;;;21.20;37.84;101708.03;5035517;28;61543;-38
2023/04/18 07:27:09;;;;;;;;;30.00;24.33;;;;;21.18;37.80;101707.22;5035699;28;51027;-37
2023/04/18 07:29:35;;;;;;;;;26.00;23.75;;;;;21.17;37.67;101700.25;5035542;28;45221;-40
2023/04/18 07:32:00;;;;;;;;;26.25;22.00;;;;;21.15;38.01;101707.34;5036214;28;46348;-38
2023/04/18 07:34:28;;;;;;;;;25.75;22.75;;;;;21.14;37.61;101700.38;5036362;28;45342;-37
2023/04/18 07:36:54;;;;;;;;;25.50;19.50;;;;;21.13;37.78;101703.94;5034742;28;45459;-37
2023/04/18 07:39:20;;;;;;;;;16.75;16.50;;;;;21.13;37.89;101699.53;5036340;28;45345;-37
2023/04/18 07:41:45;;;;;;;;;26.00;21.25;;;;;21.13;37.82;101696.88;5035845;28;45308;-38
2023/04/18 07:44:10;;;;;;;;;27.50;22.00;;;;;21.13;37.87;101694.25;5035825;28;45378;-38
2023/04/18 07:46:36;;;;;;;;;23.00;20.00;;;;;21.12;38.25;101689.91;5035149;28;63252;-38
2023/04/18 07:49:02;;;;;;;;;26.50;21.00;;;;;21.13;37.78;101693.38;5035057;28;45390;-37
2023/04/18 07:51:30;;;;;;;;;28.50;22.50;;;;;21.11;38.01;101689.97;5036133;28;45308;-38
2023/04/18 07:53:59;;;;;;;;;23.00;21.75;;;;;21.10;37.91;101688.28;5033531;28;45540;-39
2023/04/18 07:56:25;;;;;;;;;21.00;19.75;;;;;21.10;37.91;101688.28;5034179;28;45806;-38
2023/04/18 07:58:51;;;;;;;;;19.50;17.25;;;;;21.10;37.99;101689.09;5033964;28;45390;-39
2023/04/18 08:01:18;;;;;;;;;23.75;19.50;;;;;21.11;37.88;101679.44;5034108;28;48094;-40
2023/04/18 08:03:45;;;;;;;;;22.75;18.75;;;;;21.13;37.88;101680.19;5035775;28;45274;-39
2023/04/18 08:06:10;;;;;;;;;22.75;21.75;;;;;21.13;38.14;101682.84;5035909;28;45401;-41
2023/04/18 08:08:36;;;;;;;;;25.33;19.00;;;;;21.12;37.83;101682.00;5035621;28;45688;-39
2023/04/18 08:11:01;;;;;;;;;23.00;20.25;;;;;21.14;37.74;101685.44;5034549;28;46018;-39
2023/04/18 08:13:27;;;;;;;;;23.75;17.00;;;;;21.15;37.65;101686.25;5035645;28;45277;-38
2023/04/18 08:15:52;;;;;;;;;22.25;20.75;;;;;21.15;38.19;101681.00;5034385;28;45708;-36
2023/04/18 08:18:18;;;;;;;;;19.50;18.25;;;;;21.15;37.89;101675.72;5035754;28;45506;-37
2023/04/18 08:20:44;;;;;;;;;21.75;20.00;;;;;21.15;37.99;101681.88;5035469;28;47044;-38
2023/04/18 08:23:09;;;;;;;;;18.25;18.25;;;;;21.14;38.24;101674.00;5034188;28;45502;-37
2023/04/18 08:25:35;;;;;;;;;26.50;20.00;;;;;21.15;38.05;101670.44;5035635;28;45347;-38
2023/04/18 08:28:00;;;;;;;;;23.50;20.00;;;;;21.16;37.78;101669.53;5036130;28;45560;-40
2023/04/18 08:30:26;;;;;;;;;25.75;19.25;;;;;21.16;37.94;101674.81;5035464;28;46079;-38
2023/04/18 08:32:51;;;;;;;;;26.00;21.00;;;;;21.16;38.08;101677.44;5034175;28;45240;-38
2023/04/18 08:35:17;;;;;;;;;23.75;21.00;;;;;21.16;37.98;101670.41;5035599;28;45414;-37
2023/04/18 08:37:42;;;;;;;;;27.75;22.00;;;;;21.16;37.87;101670.41;5035328;28;45555;-38
2023/04/18 08:40:08;;;;;;;;;21.25;17.50;;;;;21.16;37.80;101666.88;5035230;28;46381;-38
2023/04/18 08:42:34;;;;;;;;;21.00;18.25;;;;;21.16;37.97;101665.13;5038284;28;45342;-37
2023/04/18 08:45:00;;;;;;;;;20.00;16.75;;;;;21.16;37.54;101665.13;5038980;28;45311;-37
2023/04/18 08:47:28;;;;;;;;;20.25;18.50;;;;;21.16;37.65;101673.03;5039005;28;45717;-37
2023/04/18 08:49:54;;;;;;;;;21.75;20.75;;;;;21.16;37.39;101667.75;5038593;28;47437;-37
2023/04/18 08:52:21;;;;;;;;;28.50;20.25;;;;;21.16;37.73;101667.75;5038567;28;45320;-37
2023/04/18 08:54:48;;;;;;;;;21.50;20.50;;;;;21.17;37.84;101665.97;5038545;28;45178;-38
2023/04/18 08:57:15;;;;;;;;;21.00;19.00;;;;;21.17;38.01;101663.34;5038508;28;45554;-37
2023/04/18 08:59:44;;;;;;;;;23.25;17.75;;;;;21.16;37.54;101658.97;5038544;28;46259;-38
2023/04/18 09:02:10;;;;;;;;;19.75;18.25;;;;;21.17;37.71;101655.44;5038447;28;45469;-41
2023/04/18 09:04:38;;;;;;;;;18.25;17.50;;;;;21.17;37.85;101655.44;5038775;28;45280;-43
2023/04/18 09:07:06;;;;;;;;;17.50;17.00;;;;;21.17;37.51;101652.78;5039023;28;45549;-42
2023/04/18 09:09:45;;;;;;;;;21.50;20.00;;;;;21.18;37.32;101654.50;5038258;28;46523;-40
2023/04/18 09:12:13;;;;;;;;;22.50;19.25;;;;;21.16;37.86;101648.44;5038306;28;45976;-41
2023/04/18 09:14:44;;;;;;;;;24.00;20.00;;;;;21.15;37.66;101644.97;5038427;28;45255;-43
2023/04/18 09:17:12;;;;;;;;;20.75;19.25;;;;;21.16;37.46;101644.03;5038397;28;45346;-42
2023/04/18 09:19:45;;;;;;;;;20.00;18.25;;;;;21.17;37.21;101642.25;5038069;28;46350;-38
2023/04/18 09:22:12;;;;;;;;;23.00;21.00;;;;;21.18;37.53;101649.22;5037940;28;45263;-42
2023/04/18 09:24:37;;;;;;;;;26.00;20.00;;;;;21.16;37.45;101637.91;5038532;28;45332;-38
2023/04/18 09:27:14;;;;;;;;;20.00;19.75;;;;;21.17;38.06;101634.34;5038749;28;45483;-40
2023/04/18 09:29:45;;;;;;;;;22.25;20.75;;;;;21.16;37.65;101636.13;5038187;28;45636;-38
2023/04/18 09:32:19;;;;;;;;;23.00;19.00;;;;;21.17;37.58;101634.34;5038215;28;45347;-38
2023/04/18 09:34:44;;;;;;;;;18.50;14.25;;;;;21.18;37.23;101633.41;5038094;28;45269;-38
2023/04/18 09:37:12;;;;;;;;;23.00;19.67;;;;;21.16;37.48;101633.50;5037913;28;45395;-38
2023/04/18 09:39:38;;;;;;;;;22.00;19.00;;;;;21.16;37.68;101630.84;5038054;28;45611;-37
2023/04/18 09:42:04;;;;;;;;;17.25;16.25;;;;;21.17;37.73;101629.06;5038161;28;45307;-37
2023/04/18 09:44:30;;;;;;;;;20.25;17.50;;;;;21.17;37.57;101634.34;5037827;28;45239;-37
2023/04/18 09:46:55;;;;;;;;;21.75;18.50;;;;;21.17;37.47;101621.16;5038101;28;45537;-38
2023/04/18 09:49:21;;;;;;;;;21.25;20.25;;;;;21.16;37.37;101620.31;5037586;28;46191;-38
2023/04/18 09:51:50;;;;;;;;;20.50;18.50;;;;;21.16;37.32;101619.44;5037686;28;45430;-37
2023/04/18 09:54:16;;;;;;;;;22.25;20.00;;;;;21.16;37.57;101614.16;5037259;28;45421;-39
2023/04/18 09:56:46;;;;;;;;;20.25;17.25;;;;;21.15;37.42;101610.69;5037907;28;45531;-37
2023/04/18 09:59:19;;;;;;;;;19.00;18.50;;;;;21.17;37.70;101610.59;5037504;28;45401;-37
2023/04/18 10:01:47;;;;;;;;;20.25;18.00;;;;;21.17;37.35;101597.44;5036199;28;45445;-37
2023/04/18 10:04:15;;;;;;;;;22.50;19.75;;;;;21.17;37.73;101603.53;5037694;28;45386;-39
2023/04/18 10:06:41;;;;;;;;;24.25;18.25;;;;;21.17;37.52;101608.81;5037731;28;45546;-38
2023/04/18 10:09:08;;;;;;;;;20.25;20.00;;;;;21.17;37.47;101597.44;5037569;28;46385;-39
2023/04/18 10:11:34;;;;;;;;;19.75;15.50;;;;;21.17;37.27;101597.44;5037337;28;45934;-38
2023/04/18 10:14:08;;;;;;;;;21.75;19.50;;;;;21.17;37.41;101594.78;5037399;28;45379;-38
2023/04/18 10:16:34;;;;;;;;;20.50;18.50;;;;;21.16;37.75;101603.63;5037627;28;45358;-38
2023/04/18 10:19:25;;;;;;;;;19.50;18.25;;;;;21.16;37.39;101591.31;5035898;28;46828;-37
2023/04/18 10:21:55;;;;;;;;;20.50;20.50;;;;;21.15;37.49;101591.38;5037221;28;45429;-38
2023/04/18 10:24:55;;;;;;;;;21.25;18.75;;;;;21.15;37.63;101596.63;5037373;28;45295;-38
2023/04/18 10:27:59;;;;;;;;;19.00;18.50;;;;;21.15;37.53;101580.81;5037365;28;45406;-37
2023/04/18 10:30:55;;;;;;;;;21.50;17.25;;;;;21.15;37.40;101580.81;5036987;28;45418;-38
2023/04/18 10:33:25;;;;;;;;;18.25;17.25;;;;;21.15;37.54;101580.81;5020807;28;45554;-38
2023/04/18 10:36:08;;;;;;;;;20.00;17.50;;;;;21.14;37.19;101569.44;5037191;28;45382;-38
2023/04/18 10:38:37;;;;;;;;;19.00;17.25;;;;;21.14;37.14;101568.56;5037166;28;45799;-37
2023/04/18 10:41:17;;;;;;;;;20.50;18.25;;;;;21.14;37.19;101569.44;5036692;28;47323;-37
2023/04/18 10:44:08;;;;;;;;;24.00;20.50;;;;;21.14;37.52;101561.53;5036798;28;45799;-38
2023/04/18 10:46:35;;;;;;;;;23.00;18.25;;;;;21.13;37.56;101558.94;5036807;28;45340;-39
2023/04/18 10:49:16;;;;;;;;;45.50;34.75;;;;;21.12;36.38;101563.38;5037143;28;45383;-40
2023/04/18 10:51:53;;;;;;;;;42.00;34.25;;;;;21.05;35.92;101547.91;5035574;28;47617;-38
2023/04/18 10:54:31;;;;;;;;;44.50;33.75;;;;;20.95;36.11;101542.19;5035246;28;45974;-38
2023/04/18 10:56:59;;;;;;;;;45.00;37.25;;;;;20.85;35.53;101542.63;5036720;28;45249;-40
2023/04/18 10:59:25;;;;;;;;;47.75;35.75;;;;;20.77;35.25;101543.91;5036951;28;45481;-38
2023/04/18 11:02:25;;;;;;;;;45.25;36.25;;;;;20.66;35.27;101541.72;5036389;28;45436;-38
2023/04/18 11:04:57;;;;;;;;;46.50;36.75;;;;;20.58;35.35;101536.78;5030597;28;45419;-38
2023/04/18 11:07:46;;;;;;;;;42.00;35.00;;;;;20.49;35.55;101539.84;5035275;28;45391;-38